createdAt,value
2022-12-23T00:01:36.414Z,7.42
2022-12-23T00:04:04.182Z,7.46
2022-12-23T00:06:31.819Z,7.46
2022-12-23T00:08:59.532Z,7.45
2022-12-23T00:11:29.494Z,7.46
2022-12-23T00:14:20.375Z,7.43
2022-12-23T00:16:49.160Z,7.40
2022-12-23T00:19:16.909Z,7.40
2022-12-23T00:21:44.501Z,7.39
2022-12-23T00:24:12.712Z,7.41
2022-12-23T00:26:41.653Z,7.40
2022-12-23T00:29:09.230Z,7.37
2022-12-23T00:31:36.835Z,7.35
2022-12-23T00:34:04.414Z,7.31
2022-12-23T00:36:32.301Z,7.32
2022-12-23T00:39:18.877Z,7.26
2022-12-23T00:42:05.531Z,7.24
2022-12-23T00:44:33.166Z,7.19
2022-12-23T00:47:00.769Z,7.14
2022-12-23T00:49:42.573Z,7.17
2022-12-23T00:52:12.378Z,7.16
2022-12-23T00:54:40.013Z,7.10
2022-12-23T00:57:08.975Z,7.08
2022-12-23T00:59:36.606Z,7.08
2022-12-23T01:02:21.748Z,7.09
2022-12-23T01:05:06.919Z,7.11
2022-12-23T01:07:34.561Z,7.18
2022-12-23T01:10:02.127Z,7.19
2022-12-23T01:12:31.057Z,7.19
2022-12-23T01:14:58.640Z,7.20
2022-12-23T01:17:26.273Z,7.17
2022-12-23T01:19:53.850Z,7.20
2022-12-23T01:22:21.465Z,7.23
2022-12-23T01:24:49.045Z,7.23
2022-12-23T01:27:16.716Z,7.21
2022-12-23T01:29:46.709Z,7.21
2022-12-23T01:32:15.103Z,7.18
2022-12-23T01:34:42.767Z,7.19
2022-12-23T01:37:10.352Z,7.20
2022-12-23T01:39:37.950Z,7.19
2022-12-23T01:42:23.179Z,7.20
2022-12-23T01:44:57.820Z,7.24
2022-12-23T01:47:33.865Z,7.25
2022-12-23T01:50:07.596Z,7.26
2022-12-23T01:52:37.531Z,7.27
2022-12-23T01:55:05.611Z,7.29
2022-12-23T01:57:33.263Z,7.31
2022-12-23T02:00:16.165Z,7.34
2022-12-23T02:03:01.835Z,7.40
2022-12-23T02:05:29.668Z,7.53
2022-12-23T02:08:14.557Z,7.63
2022-12-23T02:10:58.459Z,7.74
2022-12-23T02:13:31.126Z,7.87
2022-12-23T02:16:19.649Z,7.95
2022-12-23T02:18:59.576Z,8.08
2022-12-23T02:21:33.783Z,8.20
2022-12-23T02:24:27.890Z,8.29
2022-12-23T02:27:06.054Z,8.38
2022-12-23T02:29:53.257Z,8.46
2022-12-23T02:32:25.611Z,8.55
2022-12-23T02:34:55.674Z,8.57
2022-12-23T02:37:29.844Z,8.66
2022-12-23T02:40:00.276Z,8.66
2022-12-23T02:42:33.544Z,8.69
2022-12-23T02:45:04.655Z,8.71
2022-12-23T02:47:37.508Z,8.71
2022-12-23T02:50:08.290Z,8.74
2022-12-23T02:52:36.921Z,8.73
2022-12-23T02:55:08.974Z,8.68
2022-12-23T02:57:38.644Z,8.71
2022-12-23T03:00:07.760Z,8.72
2022-12-23T03:02:39.039Z,8.75
2022-12-23T03:05:07.841Z,8.77
2022-12-23T03:07:39.164Z,8.76
2022-12-23T03:10:10.364Z,8.78
2022-12-23T03:12:54.058Z,8.81
2022-12-23T03:15:28.638Z,8.84
2022-12-23T03:18:03.116Z,8.88
2022-12-23T03:20:37.444Z,8.92
2022-12-23T03:23:18.342Z,8.94
2022-12-23T03:25:51.179Z,8.98
2022-12-23T03:28:22.100Z,8.98
2022-12-23T03:30:54.072Z,9.01
2022-12-23T03:33:25.576Z,9.04
2022-12-23T03:35:56.271Z,9.01
2022-12-23T03:38:24.523Z,9.03
2022-12-23T03:40:55.584Z,9.05
2022-12-23T03:43:26.278Z,9.04
2022-12-23T03:45:58.237Z,9.00
2022-12-23T03:48:32.367Z,9.01
2022-12-23T03:51:02.581Z,8.99
2022-12-23T03:53:32.397Z,9.03
2022-12-23T03:56:01.758Z,9.05
2022-12-23T03:58:35.148Z,9.07
2022-12-23T04:01:07.975Z,9.09
2022-12-23T04:03:39.822Z,9.11
2022-12-23T04:06:11.961Z,9.11
2022-12-23T04:08:39.904Z,9.12
2022-12-23T04:11:07.627Z,9.16
2022-12-23T04:13:35.226Z,9.17
2022-12-23T04:16:03.125Z,9.16
2022-12-23T04:18:30.799Z,9.13
2022-12-23T04:20:59.799Z,9.13
2022-12-23T04:23:27.377Z,9.14
2022-12-23T04:25:54.945Z,9.16
2022-12-23T04:28:22.520Z,9.13
2022-12-23T04:30:50.081Z,9.13
2022-12-23T04:33:17.691Z,9.18
2022-12-23T04:35:45.274Z,9.16
2022-12-23T04:38:14.187Z,9.18
2022-12-23T04:40:41.730Z,9.20
2022-12-23T04:43:09.269Z,9.22
2022-12-23T04:45:36.822Z,9.25
2022-12-23T04:48:04.628Z,9.29
2022-12-23T04:50:32.230Z,9.34
2022-12-23T04:52:59.797Z,9.36
2022-12-23T04:55:28.750Z,9.39
2022-12-23T04:57:56.318Z,9.42
2022-12-23T05:00:23.980Z,9.45
2022-12-23T05:02:51.674Z,9.47
2022-12-23T05:05:19.394Z,9.50
2022-12-23T05:07:49.480Z,9.49
2022-12-23T05:10:17.571Z,9.51
2022-12-23T05:12:46.486Z,9.53
2022-12-23T05:15:14.065Z,9.51
2022-12-23T05:17:41.612Z,9.54
2022-12-23T05:20:10.692Z,9.59
2022-12-23T05:22:38.259Z,9.58
2022-12-23T05:25:06.925Z,9.58
2022-12-23T05:27:34.551Z,9.57
2022-12-23T05:30:03.584Z,9.58
2022-12-23T05:32:31.200Z,9.62
2022-12-23T05:34:58.830Z,9.66
2022-12-23T05:37:26.930Z,9.67
2022-12-23T05:39:54.527Z,9.67
2022-12-23T05:42:22.131Z,9.67
2022-12-23T05:44:49.717Z,9.63
2022-12-23T05:47:18.780Z,9.64
2022-12-23T05:49:46.409Z,9.62
2022-12-23T05:52:14.025Z,9.63
2022-12-23T05:54:41.742Z,9.67
2022-12-23T05:57:09.398Z,9.69
2022-12-23T05:59:37.058Z,9.73
2022-12-23T06:02:04.763Z,9.78
2022-12-23T06:04:33.906Z,9.83
2022-12-23T06:07:01.527Z,9.87
2022-12-23T06:09:29.228Z,9.86
2022-12-23T06:11:56.806Z,9.80
2022-12-23T06:14:28.756Z,9.80
2022-12-23T06:16:57.107Z,9.82
2022-12-23T06:19:25.048Z,9.83
2022-12-23T06:21:53.995Z,9.88
2022-12-23T06:24:21.666Z,9.89
2022-12-23T06:26:53.466Z,9.91
2022-12-23T06:29:24.531Z,9.94
2022-12-23T06:31:52.216Z,9.93
2022-12-23T06:34:19.921Z,9.92
2022-12-23T06:36:47.478Z,9.90
2022-12-23T06:39:16.537Z,9.88
2022-12-23T06:41:44.138Z,9.87
2022-12-23T06:44:11.725Z,9.86
2022-12-23T06:46:39.328Z,9.85
2022-12-23T06:49:12.840Z,9.85
2022-12-23T06:51:41.372Z,9.88
2022-12-23T06:54:11.237Z,9.89
2022-12-23T06:56:40.548Z,9.91
2022-12-23T06:59:08.194Z,9.94
2022-12-23T07:01:35.890Z,9.95
2022-12-23T07:04:03.679Z,9.95
2022-12-23T07:06:31.261Z,9.95
2022-12-23T07:08:58.959Z,9.94
2022-12-23T07:11:26.603Z,9.95
2022-12-23T07:13:55.516Z,9.94
2022-12-23T07:16:23.163Z,9.94
2022-12-23T07:18:50.804Z,9.93
2022-12-23T07:21:28.299Z,9.92
2022-12-23T07:23:56.915Z,9.91
2022-12-23T07:26:24.751Z,9.92
2022-12-23T07:28:52.332Z,9.91
2022-12-23T07:31:21.551Z,9.89
2022-12-23T07:33:49.375Z,9.90
2022-12-23T07:36:16.933Z,9.92
2022-12-23T07:38:44.535Z,9.93
2022-12-23T07:41:12.210Z,9.91
2022-12-23T07:43:39.873Z,9.90
2022-12-23T07:46:08.225Z,9.90
2022-12-23T07:48:37.361Z,9.91
2022-12-23T07:51:05.750Z,9.93
2022-12-23T07:53:33.399Z,9.93
2022-12-23T07:56:01.030Z,9.91
2022-12-23T07:58:28.680Z,9.90
2022-12-23T08:01:01.508Z,9.89
2022-12-23T08:03:29.336Z,9.87
2022-12-23T08:06:02.551Z,9.87
2022-12-23T08:08:30.260Z,9.90
2022-12-23T08:10:59.511Z,9.88
2022-12-23T08:13:27.263Z,9.85
2022-12-23T08:15:58.449Z,9.85
2022-12-23T08:18:27.087Z,9.84
2022-12-23T08:20:55.937Z,9.86
2022-12-23T08:23:25.828Z,9.89
2022-12-23T08:26:00.356Z,9.92
2022-12-23T08:28:28.169Z,9.92
2022-12-23T08:30:55.905Z,9.93
2022-12-23T08:33:23.651Z,9.94
2022-12-23T08:35:55.076Z,9.94
2022-12-23T08:38:22.818Z,9.95
2022-12-23T08:40:51.841Z,9.94
2022-12-23T08:43:20.417Z,9.96
2022-12-23T08:45:48.055Z,9.99
2022-12-23T08:48:16.162Z,10.01
2022-12-23T08:50:45.126Z,10.02
2022-12-23T08:53:13.657Z,10.03
2022-12-23T08:55:42.739Z,10.05
2022-12-23T08:58:12.523Z,10.06
2022-12-23T09:00:40.287Z,10.09
2022-12-23T09:03:08.111Z,10.07
2022-12-23T09:05:40.649Z,10.08
2022-12-23T09:08:08.320Z,10.09
2022-12-23T09:10:36.014Z,10.10
2022-12-23T09:13:03.683Z,10.11
2022-12-23T09:15:32.685Z,10.13
2022-12-23T09:18:00.330Z,10.16
2022-12-23T09:20:27.945Z,10.17
2022-12-23T09:22:55.538Z,10.19
2022-12-23T09:25:23.226Z,10.24
2022-12-23T09:27:50.840Z,10.31
2022-12-23T09:30:18.622Z,10.37
2022-12-23T09:32:47.614Z,10.40
2022-12-23T09:35:15.343Z,10.42
2022-12-23T09:37:42.932Z,10.42
2022-12-23T09:40:12.385Z,10.42
2022-12-23T09:42:51.108Z,10.40
2022-12-23T09:45:40.162Z,10.45
2022-12-23T09:48:11.687Z,10.46
2022-12-23T09:50:39.467Z,10.47
2022-12-23T09:53:09.014Z,10.48
2022-12-23T09:55:41.539Z,10.50
2022-12-23T09:58:15.503Z,10.52
2022-12-23T10:00:57.308Z,10.53
2022-12-23T10:03:30.178Z,10.50
2022-12-23T10:06:02.831Z,10.50
2022-12-23T10:08:34.547Z,10.54
2022-12-23T10:11:06.502Z,10.54
2022-12-23T10:13:37.913Z,10.57
2022-12-23T10:16:09.596Z,10.58
2022-12-23T10:18:44.848Z,10.50
2022-12-23T10:21:15.291Z,10.43
2022-12-23T10:23:45.374Z,10.40
2022-12-23T10:26:18.701Z,10.38
2022-12-23T10:28:46.331Z,10.38
2022-12-23T10:31:39.133Z,10.42
2022-12-23T10:34:14.227Z,10.45
2022-12-23T10:36:48.278Z,10.46
2022-12-23T10:39:24.379Z,10.50
2022-12-23T10:41:59.173Z,10.51
2022-12-23T10:45:02.648Z,10.55
2022-12-23T10:47:39.945Z,10.57
2022-12-23T10:50:20.205Z,10.62
2022-12-23T10:52:49.900Z,10.63
2022-12-23T10:55:26.132Z,10.65
2022-12-23T10:58:01.124Z,10.68
2022-12-23T11:00:28.778Z,10.71
2022-12-23T11:03:05.098Z,10.72
2022-12-23T11:05:34.699Z,10.77
2022-12-23T11:08:03.066Z,10.78
2022-12-23T11:10:33.056Z,10.80
2022-12-23T11:13:01.367Z,10.83
2022-12-23T11:15:32.456Z,10.85
2022-12-23T11:18:02.200Z,10.86
2022-12-23T11:20:30.447Z,10.88
2022-12-23T11:23:02.194Z,10.89
2022-12-23T11:25:33.442Z,10.88
2022-12-23T11:28:04.549Z,10.89
2022-12-23T11:30:33.821Z,10.89
2022-12-23T11:33:01.465Z,10.90
2022-12-23T11:35:31.828Z,10.90
2022-12-23T11:38:02.120Z,10.85
2022-12-23T11:40:31.496Z,10.85
2022-12-23T11:43:01.785Z,10.82
2022-12-23T11:45:30.499Z,10.81
2022-12-23T11:47:58.155Z,10.77
2022-12-23T11:50:29.520Z,10.74
2022-12-23T11:53:05.334Z,10.78
2022-12-23T11:55:33.796Z,10.78
2022-12-23T11:58:02.455Z,10.79
2022-12-23T12:00:34.769Z,10.79
2022-12-23T12:03:04.838Z,10.75
2022-12-23T12:05:37.208Z,10.77
2022-12-23T12:08:08.446Z,10.77
2022-12-23T12:10:38.169Z,10.75
2022-12-23T12:13:07.531Z,10.73
2022-12-23T12:15:38.228Z,10.73
2022-12-23T12:18:08.162Z,10.73
2022-12-23T12:20:37.677Z,10.71
2022-12-23T12:23:10.424Z,10.73
2022-12-23T12:25:41.603Z,10.72
2022-12-23T12:28:12.668Z,10.72
2022-12-23T12:30:44.852Z,10.72
2022-12-23T12:33:14.195Z,10.70
2022-12-23T12:35:44.570Z,10.67
2022-12-23T12:38:19.508Z,10.64
2022-12-23T12:40:51.021Z,10.62
2022-12-23T12:43:25.142Z,10.61
2022-12-23T12:45:54.455Z,10.62
2022-12-23T12:48:39.961Z,10.62
2022-12-23T12:51:15.549Z,10.60
2022-12-23T12:54:05.144Z,10.57
2022-12-23T12:56:36.574Z,10.57
2022-12-23T12:59:04.635Z,10.54
2022-12-23T13:01:39.763Z,10.49
2022-12-23T13:04:53.215Z,10.47
2022-12-23T13:07:26.466Z,10.42
2022-12-23T13:10:01.913Z,10.43
2022-12-23T13:12:40.344Z,10.40
2022-12-23T13:15:18.095Z,10.32
2022-12-23T13:17:50.038Z,10.33
2022-12-23T13:20:30.298Z,10.27
2022-12-23T13:23:26.985Z,10.29
2022-12-23T13:25:58.516Z,10.23
2022-12-23T13:28:33.323Z,10.20
2022-12-23T13:31:06.858Z,10.15
2022-12-23T13:33:37.393Z,10.14
2022-12-23T13:36:12.383Z,10.11
2022-12-23T13:39:06.833Z,10.13
2022-12-23T13:41:39.509Z,10.08
2022-12-23T13:44:10.699Z,10.09
2022-12-23T13:46:47.010Z,10.04
2022-12-23T13:49:21.002Z,9.95
2022-12-23T13:51:53.139Z,9.94
2022-12-23T13:54:22.963Z,9.93
2022-12-23T13:56:57.972Z,9.90
2022-12-23T13:59:39.513Z,9.91
2022-12-23T14:02:42.621Z,9.93
2022-12-23T14:05:29.883Z,9.91
2022-12-23T14:07:58.206Z,9.93
2022-12-23T14:10:26.739Z,9.94
2022-12-23T14:13:02.461Z,9.94
2022-12-23T14:15:55.203Z,9.95
2022-12-23T14:18:37.894Z,9.93
2022-12-23T14:21:13.241Z,9.92
2022-12-23T14:24:03.842Z,9.93
2022-12-23T14:26:50.460Z,9.93
2022-12-23T14:29:45.104Z,9.93
2022-12-23T14:32:21.261Z,9.91
2022-12-23T14:35:19.696Z,9.88
2022-12-23T14:38:12.211Z,9.87
2022-12-23T14:40:53.605Z,9.87
2022-12-23T14:43:55.926Z,9.83
2022-12-23T14:46:55.233Z,9.84
2022-12-23T14:49:41.536Z,9.82
2022-12-23T14:52:47.945Z,9.82
2022-12-23T14:55:44.123Z,9.82
2022-12-23T14:58:26.022Z,9.80
2022-12-23T15:00:58.455Z,9.75
2022-12-23T15:03:29.336Z,9.78
2022-12-23T15:05:57.435Z,9.79
2022-12-23T15:08:30.435Z,9.78
2022-12-23T15:10:58.680Z,9.75
2022-12-23T15:13:28.690Z,9.75
2022-12-23T15:16:01.465Z,9.77
2022-12-23T15:18:31.143Z,9.78
2022-12-23T15:21:00.927Z,9.76
2022-12-23T15:23:28.641Z,9.75
2022-12-23T15:25:58.654Z,9.77
2022-12-23T15:28:35.251Z,9.77
2022-12-23T15:31:03.234Z,9.77
2022-12-23T15:34:02.174Z,9.78
2022-12-23T15:36:28.425Z,9.79
2022-12-23T15:38:56.098Z,9.79
2022-12-23T15:41:23.719Z,9.81
2022-12-23T15:43:51.745Z,9.81
2022-12-23T15:46:28.599Z,9.82
2022-12-23T15:48:59.097Z,9.85
2022-12-23T15:52:05.250Z,9.87
2022-12-23T15:54:23.228Z,9.90
2022-12-23T15:56:52.990Z,9.93
2022-12-23T15:59:25.065Z,9.93
2022-12-23T16:01:53.289Z,9.98
2022-12-23T16:04:26.149Z,9.99
2022-12-23T16:06:54.155Z,10.03
2022-12-23T16:09:33.402Z,10.06
2022-12-23T16:12:04.099Z,10.09
2022-12-23T16:14:38.020Z,10.12
2022-12-23T16:17:18.323Z,10.17
2022-12-23T16:19:48.951Z,10.20
2022-12-23T16:22:35.658Z,10.24
2022-12-23T16:25:11.010Z,10.26
2022-12-23T16:27:40.179Z,10.28
2022-12-23T16:30:15.856Z,10.28
2022-12-23T16:32:48.414Z,10.30
2022-12-23T16:35:26.951Z,10.34
2022-12-23T16:37:58.601Z,10.36
2022-12-23T16:40:26.402Z,10.35
2022-12-23T16:42:53.982Z,10.35
2022-12-23T16:45:21.976Z,10.38
2022-12-23T16:47:58.328Z,10.36
2022-12-23T16:50:27.816Z,10.39
2022-12-23T16:52:55.405Z,10.42
2022-12-23T16:55:23.045Z,10.42
2022-12-23T16:57:50.681Z,10.42
2022-12-23T17:00:19.791Z,10.42
2022-12-23T17:02:48.495Z,10.39
2022-12-23T17:05:17.292Z,10.40
2022-12-23T17:07:46.463Z,10.40
2022-12-23T17:10:14.995Z,10.39
2022-12-23T17:12:43.198Z,10.40
2022-12-23T17:15:17.576Z,10.41
2022-12-23T17:17:45.359Z,10.42
2022-12-23T17:20:13.558Z,10.42
2022-12-23T17:22:41.657Z,10.44
2022-12-23T17:25:12.630Z,10.46
2022-12-23T17:27:40.375Z,10.47
2022-12-23T17:30:10.121Z,10.44
2022-12-23T17:32:37.845Z,10.43
2022-12-23T17:35:06.138Z,10.46
2022-12-23T17:37:33.768Z,10.48
2022-12-23T17:40:01.436Z,10.49
2022-12-23T17:42:30.825Z,10.49
2022-12-23T17:44:58.467Z,10.53
2022-12-23T17:47:26.075Z,10.55
2022-12-23T17:49:53.721Z,10.55
2022-12-23T17:52:22.973Z,10.57
2022-12-23T17:54:51.903Z,10.56
2022-12-23T17:57:22.720Z,10.57
2022-12-23T17:59:53.546Z,10.57
2022-12-23T18:02:23.215Z,10.55
2022-12-23T18:04:51.441Z,10.54
2022-12-23T18:07:19.551Z,10.54
2022-12-23T18:09:47.565Z,10.53
2022-12-23T18:12:25.106Z,10.50
2022-12-23T18:14:54.241Z,10.51
2022-12-23T18:17:21.849Z,10.52
2022-12-23T18:19:49.521Z,10.52
2022-12-23T18:22:19.459Z,10.55
2022-12-23T18:24:49.384Z,10.56
2022-12-23T18:27:22.574Z,10.55
2022-12-23T18:29:50.793Z,10.59
2022-12-23T18:32:25.334Z,10.60
2022-12-23T18:34:54.486Z,10.60
2022-12-23T18:37:22.499Z,10.60
2022-12-23T18:39:50.089Z,10.63
2022-12-23T18:42:19.199Z,10.63
2022-12-23T18:44:48.148Z,10.62
2022-12-23T18:47:15.738Z,10.65
2022-12-23T18:49:44.758Z,10.66
2022-12-23T18:52:13.369Z,10.65
2022-12-23T18:54:41.257Z,10.66
2022-12-23T18:57:10.650Z,10.68
2022-12-23T18:59:39.613Z,10.75
2022-12-23T19:02:08.040Z,10.75
2022-12-23T19:04:35.678Z,10.78
2022-12-23T19:07:04.696Z,10.81
2022-12-23T19:09:32.501Z,10.82
2022-12-23T19:12:00.292Z,10.82
2022-12-23T19:14:27.917Z,10.78
2022-12-23T19:16:55.585Z,10.81
2022-12-23T19:19:23.263Z,10.81
2022-12-23T19:21:51.117Z,10.81
2022-12-23T19:24:20.138Z,10.82
2022-12-23T19:26:48.141Z,10.83
2022-12-23T19:29:16.116Z,10.83
2022-12-23T19:31:43.845Z,10.79
2022-12-23T19:34:15.476Z,10.82
2022-12-23T19:36:43.685Z,10.80
2022-12-23T19:39:16.175Z,10.78
2022-12-23T19:41:46.161Z,10.72
2022-12-23T19:44:13.792Z,10.73
2022-12-23T19:46:41.566Z,10.74
2022-12-23T19:49:12.782Z,10.75
2022-12-23T19:51:43.493Z,10.80
2022-12-23T19:54:11.113Z,10.80
2022-12-23T19:56:38.822Z,10.83
2022-12-23T19:59:08.315Z,10.85
2022-12-23T20:01:36.009Z,10.81
2022-12-23T20:04:03.712Z,10.82
2022-12-23T20:06:34.227Z,10.80
2022-12-23T20:09:04.323Z,10.82
2022-12-23T20:11:34.299Z,10.82
2022-12-23T20:14:02.714Z,10.88
2022-12-23T20:16:31.915Z,10.89
2022-12-23T20:18:59.564Z,10.91
2022-12-23T20:21:27.221Z,10.90
2022-12-23T20:23:55.336Z,10.92
2022-12-23T20:26:24.132Z,10.83
2022-12-23T20:28:52.247Z,10.84
2022-12-23T20:31:22.173Z,10.85
2022-12-23T20:33:52.699Z,10.80
2022-12-23T20:36:22.367Z,10.78
2022-12-23T20:38:50.077Z,10.74
2022-12-23T20:41:20.129Z,10.70
2022-12-23T20:44:02.925Z,10.70
2022-12-23T20:46:35.450Z,10.68
2022-12-23T20:49:04.496Z,10.67
2022-12-23T20:51:32.159Z,10.64
2022-12-23T20:54:00.975Z,10.64
2022-12-23T20:56:30.427Z,10.62
2022-12-23T20:58:59.498Z,10.63
2022-12-23T21:01:29.466Z,10.64
2022-12-23T21:03:57.869Z,10.61
2022-12-23T21:06:27.850Z,10.67
2022-12-23T21:08:58.103Z,10.66
2022-12-23T21:11:26.114Z,10.71
2022-12-23T21:13:53.913Z,10.71
2022-12-23T21:16:21.656Z,10.73
2022-12-23T21:18:52.576Z,10.74
2022-12-23T21:21:20.955Z,10.77
2022-12-23T21:23:50.679Z,10.81
2022-12-23T21:26:20.225Z,10.81
2022-12-23T21:28:49.316Z,10.81
2022-12-23T21:31:18.495Z,10.81
2022-12-23T21:33:47.237Z,10.88
2022-12-23T21:36:20.291Z,10.91
2022-12-23T21:38:50.267Z,10.91
2022-12-23T21:41:20.409Z,10.89
2022-12-23T21:43:48.245Z,10.89
2022-12-23T21:46:17.734Z,10.92
2022-12-23T21:48:45.523Z,10.97
2022-12-23T21:51:15.560Z,10.96
2022-12-23T21:53:44.249Z,11.00
2022-12-23T21:56:14.717Z,10.99
2022-12-23T21:58:42.594Z,11.02
2022-12-23T22:01:11.533Z,11.02
2022-12-23T22:03:39.423Z,11.03
2022-12-23T22:06:10.652Z,11.06
2022-12-23T22:08:38.705Z,11.09
2022-12-23T22:11:07.593Z,11.11
2022-12-23T22:13:36.735Z,11.12
2022-12-23T22:16:04.966Z,11.12
2022-12-23T22:18:32.630Z,11.10
2022-12-23T22:21:00.315Z,11.08
2022-12-23T22:23:27.987Z,11.09
2022-12-23T22:25:56.114Z,11.07
2022-12-23T22:28:23.912Z,11.05
2022-12-23T22:30:52.886Z,11.01
2022-12-23T22:33:21.147Z,11.00
2022-12-23T22:35:54.855Z,10.98
2022-12-23T22:38:22.545Z,10.93
2022-12-23T22:40:50.775Z,10.91
2022-12-23T22:43:19.073Z,10.94
2022-12-23T22:45:47.778Z,10.93
2022-12-23T22:48:18.469Z,10.88
2022-12-23T22:53:49.556Z,10.88
2022-12-23T22:56:31.127Z,10.88
2022-12-23T22:59:05.380Z,10.91
2022-12-23T23:02:00.140Z,10.89
2022-12-23T23:11:27.345Z,10.85
2022-12-23T23:13:56.199Z,10.80
2022-12-23T23:16:36.629Z,10.81
2022-12-23T23:19:06.449Z,10.82
2022-12-23T23:21:50.413Z,10.79
2022-12-23T23:24:31.239Z,10.78
2022-12-23T23:26:59.428Z,10.75
2022-12-23T23:29:27.249Z,10.77
2022-12-23T23:31:55.061Z,10.75
2022-12-23T23:34:22.815Z,10.74
2022-12-23T23:36:52.048Z,10.81
2022-12-23T23:39:19.846Z,10.79
2022-12-23T23:41:47.464Z,10.75
2022-12-23T23:44:15.265Z,10.69
2022-12-23T23:46:42.894Z,10.65
2022-12-23T23:49:10.711Z,10.66
2022-12-23T23:51:38.621Z,10.63
2022-12-23T23:54:07.849Z,10.61
2022-12-23T23:56:38.559Z,10.60
2022-12-23T23:59:07.159Z,10.57
